sensor_id;sensor_type;location;lat;lon;timestamp;pressure;altitude;pressure_sealevel;temperature;humidity
44992;BME280;56865;51.618;7.406;2023-05-10T00:02:04;99999.69;;;35.33;94.09
44992;BME280;56865;51.618;7.406;2023-05-10T00:05:09;99992.22;;;35.47;86.96
44992;BME280;56865;51.618;7.406;2023-05-10T00:08:16;99990.47;;;35.77;85.82
44992;BME280;56865;51.618;7.406;2023-05-10T00:10:53;100002.84;;;35.57;84.18
44992;BME280;56865;51.618;7.406;2023-05-10T00:13:24;100004.25;;;35.61;84.39
44992;BME280;56865;51.618;7.406;2023-05-10T00:16:04;100008.28;;;35.66;81.98
44992;BME280;56865;51.618;7.406;2023-05-10T00:18:41;99984.97;;;35.40;84.55
44992;BME280;56865;51.618;7.406;2023-05-10T00:21:28;99996.66;;;35.37;85.60
44992;BME280;56865;51.618;7.406;2023-05-10T00:24:04;99972.75;;;29.21;100.00
44992;BME280;56865;51.618;7.406;2023-05-10T00:26:39;100003.34;;;29.07;100.00
44992;BME280;56865;51.618;7.406;2023-05-10T00:29:17;100019.41;;;28.72;100.00
44992;BME280;56865;51.618;7.406;2023-05-10T00:31:54;100036.72;;;29.34;100.00
44992;BME280;56865;51.618;7.406;2023-05-10T00:34:31;99630.09;;;35.64;100.00
44992;BME280;56865;51.618;7.406;2023-05-10T00:37:23;99972.91;;;31.20;100.00
44992;BME280;56865;51.618;7.406;2023-05-10T00:45:19;99975.84;;;30.64;100.00
44992;BME280;56865;51.618;7.406;2023-05-10T00:47:56;99976.50;;;30.68;100.00
44992;BME280;56865;51.618;7.406;2023-05-10T00:50:43;99997.41;;;33.47;100.00
44992;BME280;56865;51.618;7.406;2023-05-10T00:53:30;100001.91;;;34.12;100.00
44992;BME280;56865;51.618;7.406;2023-05-10T00:56:06;99998.41;;;33.79;100.00
44992;BME280;56865;51.618;7.406;2023-05-10T00:58:38;99976.97;;;33.49;100.00
44992;BME280;56865;51.618;7.406;2023-05-10T01:01:09;99989.88;;;33.31;100.00
44992;BME280;56865;51.618;7.406;2023-05-10T01:03:50;99992.66;;;33.62;100.00
44992;BME280;56865;51.618;7.406;2023-05-10T01:06:27;100012.00;;;34.18;98.04
44992;BME280;56865;51.618;7.406;2023-05-10T01:09:00;99996.81;;;34.20;96.42
44992;BME280;56865;51.618;7.406;2023-05-10T01:11:30;100007.50;;;34.51;96.70
44992;BME280;56865;51.618;7.406;2023-05-10T01:14:03;100001.16;;;34.21;94.08
44992;BME280;56865;51.618;7.406;2023-05-10T01:16:36;100002.56;;;34.04;98.54
44992;BME280;56865;51.618;7.406;2023-05-10T01:19:14;100001.06;;;33.90;97.15
44992;BME280;56865;51.618;7.406;2023-05-10T01:21:51;100004.28;;;34.15;95.28
44992;BME280;56865;51.618;7.406;2023-05-10T01:24:55;100012.22;;;33.71;96.07
44992;BME280;56865;51.618;7.406;2023-05-10T01:27:51;100009.63;;;33.60;93.45
44992;BME280;56865;51.618;7.406;2023-05-10T01:30:57;100008.25;;;33.88;92.04
44992;BME280;56865;51.618;7.406;2023-05-10T01:33:39;100000.41;;;33.98;93.46
44992;BME280;56865;51.618;7.406;2023-05-10T01:36:18;99998.19;;;34.14;92.85
44992;BME280;56865;51.618;7.406;2023-05-10T01:38:58;100008.06;;;34.33;90.36
44992;BME280;56865;51.618;7.406;2023-05-10T01:41:38;100010.03;;;33.99;93.64
44992;BME280;56865;51.618;7.406;2023-05-10T01:44:17;100014.63;;;33.85;92.66
44992;BME280;56865;51.618;7.406;2023-05-10T01:46:52;100008.00;;;33.36;94.77
44992;BME280;56865;51.618;7.406;2023-05-10T01:49:46;100011.44;;;33.25;96.14
44992;BME280;56865;51.618;7.406;2023-05-10T01:52:41;100009.91;;;32.41;100.00
44992;BME280;56865;51.618;7.406;2023-05-10T01:55:30;100003.69;;;29.59;100.00
44992;BME280;56865;51.618;7.406;2023-05-10T01:58:05;100013.28;;;29.02;100.00
44992;BME280;56865;51.618;7.406;2023-05-10T02:00:40;100020.59;;;31.79;100.00
44992;BME280;56865;51.618;7.406;2023-05-10T02:03:14;100035.22;;;33.02;100.00
44992;BME280;56865;51.618;7.406;2023-05-10T02:05:49;100038.94;;;32.88;99.32
44992;BME280;56865;51.618;7.406;2023-05-10T02:08:21;100038.78;;;32.79;100.00
44992;BME280;56865;51.618;7.406;2023-05-10T02:10:54;100047.00;;;32.63;100.00
44992;BME280;56865;51.618;7.406;2023-05-10T02:13:27;100032.19;;;32.37;99.81
44992;BME280;56865;51.618;7.406;2023-05-10T02:15:59;100044.97;;;32.66;98.71
44992;BME280;56865;51.618;7.406;2023-05-10T02:18:31;100048.63;;;32.77;95.55
44992;BME280;56865;51.618;7.406;2023-05-10T02:21:08;100049.97;;;32.82;97.36
44992;BME280;56865;51.618;7.406;2023-05-10T02:23:39;100045.63;;;32.81;96.60
44992;BME280;56865;51.618;7.406;2023-05-10T02:26:10;100063.91;;;32.60;94.31
44992;BME280;56865;51.618;7.406;2023-05-10T02:28:42;100062.47;;;33.03;95.76
44992;BME280;56865;51.618;7.406;2023-05-10T02:31:13;100062.88;;;32.74;94.68
44992;BME280;56865;51.618;7.406;2023-05-10T02:33:45;100065.03;;;32.33;93.55
44992;BME280;56865;51.618;7.406;2023-05-10T02:36:20;100058.13;;;32.90;94.85
44992;BME280;56865;51.618;7.406;2023-05-10T02:38:51;100051.06;;;32.91;93.36
44992;BME280;56865;51.618;7.406;2023-05-10T02:41:22;100059.94;;;33.13;92.39
44992;BME280;56865;51.618;7.406;2023-05-10T02:43:56;100060.53;;;32.94;91.51
44992;BME280;56865;51.618;7.406;2023-05-10T02:46:27;100043.53;;;32.62;91.35
44992;BME280;56865;51.618;7.406;2023-05-10T02:48:57;100061.47;;;32.46;90.82
44992;BME280;56865;51.618;7.406;2023-05-10T02:51:36;100056.31;;;32.20;94.34
44992;BME280;56865;51.618;7.406;2023-05-10T02:54:10;100058.88;;;32.21;93.55
44992;BME280;56865;51.618;7.406;2023-05-10T02:56:47;100057.47;;;32.16;95.86
44992;BME280;56865;51.618;7.406;2023-05-10T02:59:17;100064.53;;;32.28;95.33
44992;BME280;56865;51.618;7.406;2023-05-10T03:01:48;100068.56;;;32.21;96.20
44992;BME280;56865;51.618;7.406;2023-05-10T03:04:18;100060.50;;;32.35;93.22
44992;BME280;56865;51.618;7.406;2023-05-10T03:06:51;100049.97;;;31.98;92.22
44992;BME280;56865;51.618;7.406;2023-05-10T03:09:22;100061.41;;;32.10;91.83
44992;BME280;56865;51.618;7.406;2023-05-10T03:11:59;100051.59;;;31.88;93.41
44992;BME280;56865;51.618;7.406;2023-05-10T03:14:42;100060.69;;;32.08;96.11
44992;BME280;56865;51.618;7.406;2023-05-10T03:17:20;100067.91;;;32.17;96.05
44992;BME280;56865;51.618;7.406;2023-05-10T03:19:55;100072.06;;;32.21;94.64
44992;BME280;56865;51.618;7.406;2023-05-10T03:22:31;100075.69;;;31.95;93.78
44992;BME280;56865;51.618;7.406;2023-05-10T03:25:05;100062.63;;;31.69;95.39
44992;BME280;56865;51.618;7.406;2023-05-10T03:27:40;100074.53;;;31.99;94.38
44992;BME280;56865;51.618;7.406;2023-05-10T03:30:12;100068.59;;;32.08;93.69
44992;BME280;56865;51.618;7.406;2023-05-10T03:32:43;100080.22;;;32.89;92.93
44992;BME280;56865;51.618;7.406;2023-05-10T03:40:53;100080.53;;;31.38;97.62
44992;BME280;56865;51.618;7.406;2023-05-10T03:43:50;100055.44;;;27.24;100.00
44992;BME280;56865;51.618;7.406;2023-05-10T03:46:57;100072.22;;;27.03;100.00
44992;BME280;56865;51.618;7.406;2023-05-10T03:49:28;100083.25;;;28.87;100.00
44992;BME280;56865;51.618;7.406;2023-05-10T03:51:58;100063.72;;;29.65;100.00
44992;BME280;56865;51.618;7.406;2023-05-10T03:54:28;100096.41;;;31.62;100.00
44992;BME280;56865;51.618;7.406;2023-05-10T03:57:02;100081.47;;;27.61;100.00
44992;BME280;56865;51.618;7.406;2023-05-10T03:59:32;100074.50;;;27.27;100.00
44992;BME280;56865;51.618;7.406;2023-05-10T04:02:05;100084.44;;;28.03;100.00
44992;BME280;56865;51.618;7.406;2023-05-10T04:04:41;100072.59;;;27.96;100.00
44992;BME280;56865;51.618;7.406;2023-05-10T04:07:45;100080.91;;;27.21;100.00
44992;BME280;56865;51.618;7.406;2023-05-10T04:10:39;100065.41;;;27.83;100.00
44992;BME280;56865;51.618;7.406;2023-05-10T04:13:24;100085.41;;;30.52;100.00
44992;BME280;56865;51.618;7.406;2023-05-10T04:37:27;100092.94;;;31.61;100.00
44992;BME280;56865;51.618;7.406;2023-05-10T04:39:57;100097.59;;;31.71;100.00
44992;BME280;56865;51.618;7.406;2023-05-10T04:42:28;100108.06;;;31.72;98.95
44992;BME280;56865;51.618;7.406;2023-05-10T04:45:01;100096.97;;;31.54;99.56
44992;BME280;56865;51.618;7.406;2023-05-10T04:47:32;100103.28;;;31.77;100.00
44992;BME280;56865;51.618;7.406;2023-05-10T04:50:06;100094.13;;;31.70;99.42
44992;BME280;56865;51.618;7.406;2023-05-10T04:52:40;100110.97;;;31.81;99.02
44992;BME280;56865;51.618;7.406;2023-05-10T04:55:12;100096.97;;;31.67;97.66
44992;BME280;56865;51.618;7.406;2023-05-10T04:57:43;100121.59;;;31.92;97.67
44992;BME280;56865;51.618;7.406;2023-05-10T05:00:15;100109.63;;;31.75;98.51
44992;BME280;56865;51.618;7.406;2023-05-10T05:02:46;100132.38;;;31.89;100.00
44992;BME280;56865;51.618;7.406;2023-05-10T05:05:18;100124.34;;;31.90;100.00
44992;BME280;56865;51.618;7.406;2023-05-10T05:07:51;100122.53;;;32.52;98.03
44992;BME280;56865;51.618;7.406;2023-05-10T05:10:24;100119.09;;;31.77;98.41
44992;BME280;56865;51.618;7.406;2023-05-10T05:12:57;100108.06;;;31.72;96.82
44992;BME280;56865;51.618;7.406;2023-05-10T05:16:10;100115.22;;;31.57;98.64
44992;BME280;56865;51.618;7.406;2023-05-10T05:21:52;100134.06;;;31.51;100.00
44992;BME280;56865;51.618;7.406;2023-05-10T06:54:05;100203.03;;;33.42;96.95
44992;BME280;56865;51.618;7.406;2023-05-10T06:57:02;100201.25;;;33.54;96.60
44992;BME280;56865;51.618;7.406;2023-05-10T07:17:15;100224.13;;;33.66;94.29
44992;BME280;56865;51.618;7.406;2023-05-10T07:20:01;100220.91;;;33.97;94.58
44992;BME280;56865;51.618;7.406;2023-05-10T07:28:15;100218.47;;;34.39;98.69
44992;BME280;56865;51.618;7.406;2023-05-10T07:30:57;100228.00;;;34.63;97.18
44992;BME280;56865;51.618;7.406;2023-05-10T07:36:16;100226.97;;;34.98;96.88
44992;BME280;56865;51.618;7.406;2023-05-10T07:47:06;100221.22;;;34.38;95.26
44992;BME280;56865;51.618;7.406;2023-05-10T07:49:52;100228.16;;;34.61;96.47
44992;BME280;56865;51.618;7.406;2023-05-10T07:52:29;100215.84;;;33.82;98.94
44992;BME280;56865;51.618;7.406;2023-05-10T07:54:59;100229.41;;;34.90;96.83
44992;BME280;56865;51.618;7.406;2023-05-10T08:05:28;100235.13;;;34.62;97.03
44992;BME280;56865;51.618;7.406;2023-05-10T08:08:14;100230.97;;;34.81;95.49
44992;BME280;56865;51.618;7.406;2023-05-10T08:11:13;100241.06;;;34.32;91.23
44992;BME280;56865;51.618;7.406;2023-05-10T08:13:45;100238.47;;;34.76;95.59
44992;BME280;56865;51.618;7.406;2023-05-10T08:16:25;100225.72;;;34.70;93.84
44992;BME280;56865;51.618;7.406;2023-05-10T08:18:57;100233.25;;;34.53;94.63
44992;BME280;56865;51.618;7.406;2023-05-10T08:21:28;100236.84;;;33.73;95.64
44992;BME280;56865;51.618;7.406;2023-05-10T08:24:10;100245.97;;;33.80;97.44
44992;BME280;56865;51.618;7.406;2023-05-10T08:26:43;100236.00;;;33.72;98.61
44992;BME280;56865;51.618;7.406;2023-05-10T08:29:15;100243.63;;;33.88;97.63
44992;BME280;56865;51.618;7.406;2023-05-10T08:31:48;100233.63;;;34.92;93.96
44992;BME280;56865;51.618;7.406;2023-05-10T08:50:46;100252.75;;;30.11;100.00
44992;BME280;56865;51.618;7.406;2023-05-10T08:56:10;100252.38;;;29.89;100.00
44992;BME280;56865;51.618;7.406;2023-05-10T08:58:40;100255.66;;;30.07;100.00
44992;BME280;56865;51.618;7.406;2023-05-10T09:01:11;100263.34;;;30.24;100.00
44992;BME280;56865;51.618;7.406;2023-05-10T09:03:46;100270.97;;;30.00;100.00
44992;BME280;56865;51.618;7.406;2023-05-10T09:09:06;100268.22;;;30.16;100.00
44992;BME280;56865;51.618;7.406;2023-05-10T09:11:43;100272.50;;;29.88;100.00
44992;BME280;56865;51.618;7.406;2023-05-10T09:16:52;100284.09;;;30.00;100.00
44992;BME280;56865;51.618;7.406;2023-05-10T09:19:25;100268.59;;;29.95;100.00
44992;BME280;56865;51.618;7.406;2023-05-10T09:21:55;100280.69;;;30.12;100.00
44992;BME280;56865;51.618;7.406;2023-05-10T09:24:43;100278.47;;;30.21;100.00
44992;BME280;56865;51.618;7.406;2023-05-10T09:27:33;100284.00;;;30.16;100.00
44992;BME280;56865;51.618;7.406;2023-05-10T09:30:05;100294.53;;;30.02;100.00
44992;BME280;56865;51.618;7.406;2023-05-10T09:32:58;100284.66;;;30.20;100.00
44992;BME280;56865;51.618;7.406;2023-05-10T09:38:10;100285.22;;;30.39;100.00
44992;BME280;56865;51.618;7.406;2023-05-10T09:56:37;100288.94;;;30.78;100.00
44992;BME280;56865;51.618;7.406;2023-05-10T09:59:21;100289.22;;;30.74;100.00
44992;BME280;56865;51.618;7.406;2023-05-10T10:01:56;100288.94;;;31.06;100.00
44992;BME280;56865;51.618;7.406;2023-05-10T10:12:29;100281.34;;;31.01;100.00
44992;BME280;56865;51.618;7.406;2023-05-10T10:15:16;100289.28;;;30.87;100.00
44992;BME280;56865;51.618;7.406;2023-05-10T10:17:51;100278.78;;;30.72;100.00
44992;BME280;56865;51.618;7.406;2023-05-10T10:23:41;100281.22;;;31.03;100.00
44992;BME280;56865;51.618;7.406;2023-05-10T10:26:11;100293.03;;;30.97;100.00
44992;BME280;56865;51.618;7.406;2023-05-10T10:42:45;100301.78;;;31.25;100.00
44992;BME280;56865;51.618;7.406;2023-05-10T10:50:47;100314.53;;;30.33;100.00
44992;BME280;56865;51.618;7.406;2023-05-10T11:01:19;100321.47;;;30.20;100.00
44992;BME280;56865;51.618;7.406;2023-05-10T11:04:16;100317.69;;;30.24;100.00
44992;BME280;56865;51.618;7.406;2023-05-10T11:37:34;100348.03;;;30.87;100.00
44992;BME280;56865;51.618;7.406;2023-05-10T11:42:40;100350.97;;;31.24;100.00
44992;BME280;56865;51.618;7.406;2023-05-10T11:45:11;100358.69;;;30.86;100.00
44992;BME280;56865;51.618;7.406;2023-05-10T11:53:07;100349.44;;;30.35;100.00
44992;BME280;56865;51.618;7.406;2023-05-10T11:58:15;100364.47;;;30.19;100.00
44992;BME280;56865;51.618;7.406;2023-05-10T12:00:46;100357.94;;;30.55;100.00
44992;BME280;56865;51.618;7.406;2023-05-10T13:10:11;100394.56;;;32.36;100.00
44992;BME280;56865;51.618;7.406;2023-05-10T13:18:04;100400.13;;;32.70;100.00
44992;BME280;56865;51.618;7.406;2023-05-10T13:26:00;100398.81;;;33.15;100.00
44992;BME280;56865;51.618;7.406;2023-05-10T13:50:05;100413.91;;;33.50;100.00
44992;BME280;56865;51.618;7.406;2023-05-10T14:16:42;100393.16;;;32.95;100.00
44992;BME280;56865;51.618;7.406;2023-05-10T14:19:12;100392.81;;;33.00;100.00
44992;BME280;56865;51.618;7.406;2023-05-10T14:24:22;100386.47;;;33.02;100.00
44992;BME280;56865;51.618;7.406;2023-05-10T14:26:53;100385.84;;;32.99;100.00
44992;BME280;56865;51.618;7.406;2023-05-10T14:43:07;100384.69;;;33.27;100.00
44992;BME280;56865;51.618;7.406;2023-05-10T14:45:37;100386.13;;;33.44;100.00
44992;BME280;56865;51.618;7.406;2023-05-10T14:53:31;100388.94;;;33.54;100.00
44992;BME280;56865;51.618;7.406;2023-05-10T14:58:49;100389.09;;;33.40;100.00
44992;BME280;56865;51.618;7.406;2023-05-10T15:01:20;100383.41;;;33.57;100.00
44992;BME280;56865;51.618;7.406;2023-05-10T15:03:50;100387.19;;;34.01;100.00
44992;BME280;56865;51.618;7.406;2023-05-10T15:06:23;100395.44;;;33.37;100.00
44992;BME280;56865;51.618;7.406;2023-05-10T15:08:54;100392.28;;;33.80;98.81
44992;BME280;56865;51.618;7.406;2023-05-10T15:11:25;100385.00;;;33.71;100.00
44992;BME280;56865;51.618;7.406;2023-05-10T15:13:58;100384.53;;;33.42;100.00
44992;BME280;56865;51.618;7.406;2023-05-10T15:16:28;100398.75;;;33.28;100.00
44992;BME280;56865;51.618;7.406;2023-05-10T15:19:01;100387.88;;;33.19;100.00
44992;BME280;56865;51.618;7.406;2023-05-10T15:21:31;100380.97;;;33.05;100.00
44992;BME280;56865;51.618;7.406;2023-05-10T15:24:05;100401.22;;;33.18;100.00
44992;BME280;56865;51.618;7.406;2023-05-10T15:26:36;100399.69;;;33.27;100.00
44992;BME280;56865;51.618;7.406;2023-05-10T15:29:08;100398.00;;;33.38;100.00
44992;BME280;56865;51.618;7.406;2023-05-10T15:31:38;100393.88;;;33.34;100.00
44992;BME280;56865;51.618;7.406;2023-05-10T15:34:08;100394.41;;;33.27;100.00
44992;BME280;56865;51.618;7.406;2023-05-10T15:36:38;100380.22;;;33.41;100.00
44992;BME280;56865;51.618;7.406;2023-05-10T15:39:09;100396.25;;;33.50;100.00
44992;BME280;56865;51.618;7.406;2023-05-10T15:41:39;100402.34;;;33.51;100.00
44992;BME280;56865;51.618;7.406;2023-05-10T15:44:11;100400.75;;;33.61;100.00
44992;BME280;56865;51.618;7.406;2023-05-10T15:46:41;100409.88;;;33.68;100.00
44992;BME280;56865;51.618;7.406;2023-05-10T15:49:11;100403.94;;;33.29;100.00
44992;BME280;56865;51.618;7.406;2023-05-10T15:51:41;100415.25;;;33.56;100.00
44992;BME280;56865;51.618;7.406;2023-05-10T15:54:12;100411.66;;;33.57;100.00
44992;BME280;56865;51.618;7.406;2023-05-10T15:56:42;100418.13;;;33.15;100.00
44992;BME280;56865;51.618;7.406;2023-05-10T15:59:16;100417.41;;;33.13;100.00
44992;BME280;56865;51.618;7.406;2023-05-10T16:01:46;100410.75;;;33.08;100.00
44992;BME280;56865;51.618;7.406;2023-05-10T16:04:16;100424.81;;;33.45;100.00
44992;BME280;56865;51.618;7.406;2023-05-10T16:06:46;100411.28;;;33.50;100.00
44992;BME280;56865;51.618;7.406;2023-05-10T16:09:16;100416.44;;;33.51;100.00
44992;BME280;56865;51.618;7.406;2023-05-10T16:11:47;100428.25;;;33.83;100.00
44992;BME280;56865;51.618;7.406;2023-05-10T16:14:20;100422.28;;;34.03;100.00
44992;BME280;56865;51.618;7.406;2023-05-10T16:16:50;100427.59;;;33.79;100.00
44992;BME280;56865;51.618;7.406;2023-05-10T16:19:20;100432.06;;;33.79;100.00
44992;BME280;56865;51.618;7.406;2023-05-10T16:21:50;100425.28;;;33.75;100.00
44992;BME280;56865;51.618;7.406;2023-05-10T16:24:20;100433.06;;;33.41;100.00
44992;BME280;56865;51.618;7.406;2023-05-10T16:26:50;100431.66;;;33.72;100.00
44992;BME280;56865;51.618;7.406;2023-05-10T16:29:22;100436.44;;;33.43;100.00
44992;BME280;56865;51.618;7.406;2023-05-10T16:31:52;100442.88;;;33.51;100.00
44992;BME280;56865;51.618;7.406;2023-05-10T16:34:22;100439.09;;;33.67;100.00
44992;BME280;56865;51.618;7.406;2023-05-10T16:36:52;100448.97;;;33.52;100.00
44992;BME280;56865;51.618;7.406;2023-05-10T16:39:22;100449.38;;;33.21;100.00
44992;BME280;56865;51.618;7.406;2023-05-10T16:41:51;100446.00;;;33.57;100.00
44992;BME280;56865;51.618;7.406;2023-05-10T16:44:24;100447.34;;;33.38;100.00
44992;BME280;56865;51.618;7.406;2023-05-10T16:46:54;100455.97;;;33.53;100.00
44992;BME280;56865;51.618;7.406;2023-05-10T16:49:26;100456.00;;;33.64;100.00
44992;BME280;56865;51.618;7.406;2023-05-10T16:52:04;100458.03;;;33.61;100.00
44992;BME280;56865;51.618;7.406;2023-05-10T16:54:34;100465.97;;;33.61;97.96
44992;BME280;56865;51.618;7.406;2023-05-10T16:57:05;100447.84;;;33.43;98.90
44992;BME280;56865;51.618;7.406;2023-05-10T16:59:37;100456.00;;;33.64;100.00
44992;BME280;56865;51.618;7.406;2023-05-10T17:02:07;100455.00;;;33.54;100.00
44992;BME280;56865;51.618;7.406;2023-05-10T17:04:38;100453.75;;;33.47;100.00
44992;BME280;56865;51.618;7.406;2023-05-10T17:07:09;100460.91;;;33.33;100.00
44992;BME280;56865;51.618;7.406;2023-05-10T17:09:40;100463.56;;;33.33;100.00
44992;BME280;56865;51.618;7.406;2023-05-10T17:12:10;100464.38;;;33.34;100.00
44992;BME280;56865;51.618;7.406;2023-05-10T17:14:43;100460.19;;;33.18;100.00
44992;BME280;56865;51.618;7.406;2023-05-10T17:17:13;100465.41;;;32.68;100.00
44992;BME280;56865;51.618;7.406;2023-05-10T17:19:44;100460.03;;;32.83;100.00
44992;BME280;56865;51.618;7.406;2023-05-10T17:22:14;100469.53;;;32.60;100.00
44992;BME280;56865;51.618;7.406;2023-05-10T17:24:44;100466.72;;;33.13;100.00
44992;BME280;56865;51.618;7.406;2023-05-10T17:27:14;100461.72;;;32.84;100.00
44992;BME280;56865;51.618;7.406;2023-05-10T17:29:47;100465.63;;;32.91;100.00
44992;BME280;56865;51.618;7.406;2023-05-10T17:32:17;100467.19;;;32.94;100.00
44992;BME280;56865;51.618;7.406;2023-05-10T17:34:48;100469.53;;;32.85;99.65
44992;BME280;56865;51.618;7.406;2023-05-10T17:37:18;100476.47;;;32.73;100.00
44992;BME280;56865;51.618;7.406;2023-05-10T17:39:51;100472.25;;;32.71;100.00
44992;BME280;56865;51.618;7.406;2023-05-10T17:42:21;100482.94;;;32.95;100.00
44992;BME280;56865;51.618;7.406;2023-05-10T17:44:55;100487.47;;;32.80;100.00
44992;BME280;56865;51.618;7.406;2023-05-10T17:47:25;100488.19;;;32.44;100.00
44992;BME280;56865;51.618;7.406;2023-05-10T17:49:59;100485.56;;;32.44;100.00
44992;BME280;56865;51.618;7.406;2023-05-10T17:52:30;100499.91;;;32.39;100.00
44992;BME280;56865;51.618;7.406;2023-05-10T17:55:00;100495.69;;;32.37;100.00
44992;BME280;56865;51.618;7.406;2023-05-10T17:57:30;100492.41;;;32.06;100.00
44992;BME280;56865;51.618;7.406;2023-05-10T18:00:07;100499.69;;;32.42;100.00
44992;BME280;56865;51.618;7.406;2023-05-10T18:02:37;100495.41;;;32.14;100.00
44992;BME280;56865;51.618;7.406;2023-05-10T18:05:08;100498.97;;;32.00;100.00
44992;BME280;56865;51.618;7.406;2023-05-10T18:07:39;100502.25;;;32.17;100.00
44992;BME280;56865;51.618;7.406;2023-05-10T18:10:10;100502.25;;;31.76;100.00
44992;BME280;56865;51.618;7.406;2023-05-10T18:12:40;100514.25;;;31.95;100.00
44992;BME280;56865;51.618;7.406;2023-05-10T18:15:13;100515.28;;;31.92;100.00
44992;BME280;56865;51.618;7.406;2023-05-10T18:17:43;100510.47;;;31.85;100.00
44992;BME280;56865;51.618;7.406;2023-05-10T18:20:13;100530.69;;;31.71;100.00
44992;BME280;56865;51.618;7.406;2023-05-10T18:22:43;100531.09;;;31.65;100.00
44992;BME280;56865;51.618;7.406;2023-05-10T18:25:14;100528.72;;;31.75;100.00
44992;BME280;56865;51.618;7.406;2023-05-10T18:27:44;100526.44;;;31.54;100.00
44992;BME280;56865;51.618;7.406;2023-05-10T18:30:17;100539.81;;;31.66;100.00
44992;BME280;56865;51.618;7.406;2023-05-10T18:32:48;100540.69;;;31.66;100.00
44992;BME280;56865;51.618;7.406;2023-05-10T18:35:18;100536.13;;;31.68;100.00
44992;BME280;56865;51.618;7.406;2023-05-10T18:37:48;100540.00;;;31.48;100.00
44992;BME280;56865;51.618;7.406;2023-05-10T18:40:19;100539.94;;;31.35;100.00
44992;BME280;56865;51.618;7.406;2023-05-10T18:42:49;100545.66;;;31.56;100.00
44992;BME280;56865;51.618;7.406;2023-05-10T18:45:22;100542.16;;;31.56;100.00
44992;BME280;56865;51.618;7.406;2023-05-10T18:47:53;100539.72;;;31.53;100.00
44992;BME280;56865;51.618;7.406;2023-05-10T18:50:26;100549.50;;;31.51;100.00
44992;BME280;56865;51.618;7.406;2023-05-10T18:52:56;100543.69;;;31.60;100.00
44992;BME280;56865;51.618;7.406;2023-05-10T18:55:26;100549.34;;;31.54;100.00
44992;BME280;56865;51.618;7.406;2023-05-10T18:57:57;100550.09;;;31.41;100.00
44992;BME280;56865;51.618;7.406;2023-05-10T19:00:30;100557.97;;;31.56;100.00
44992;BME280;56865;51.618;7.406;2023-05-10T19:03:00;100553.00;;;31.66;100.00
44992;BME280;56865;51.618;7.406;2023-05-10T19:05:30;100553.13;;;31.50;100.00
44992;BME280;56865;51.618;7.406;2023-05-10T19:08:03;100561.75;;;31.52;100.00
44992;BME280;56865;51.618;7.406;2023-05-10T19:10:33;100566.47;;;31.61;100.00
44992;BME280;56865;51.618;7.406;2023-05-10T19:13:03;100572.09;;;31.69;100.00
44992;BME280;56865;51.618;7.406;2023-05-10T19:15:36;100583.59;;;31.68;100.00
44992;BME280;56865;51.618;7.406;2023-05-10T19:18:06;100579.47;;;31.64;100.00
44992;BME280;56865;51.618;7.406;2023-05-10T19:20:36;100583.22;;;31.45;100.00
44992;BME280;56865;51.618;7.406;2023-05-10T19:23:08;100585.09;;;31.29;100.00
44992;BME280;56865;51.618;7.406;2023-05-10T19:25:39;100590.66;;;31.39;100.00
44992;BME280;56865;51.618;7.406;2023-05-10T19:28:09;100597.53;;;31.41;100.00
44992;BME280;56865;51.618;7.406;2023-05-10T19:30:42;100592.63;;;31.21;100.00
44992;BME280;56865;51.618;7.406;2023-05-10T19:33:12;100595.25;;;31.35;100.00
44992;BME280;56865;51.618;7.406;2023-05-10T19:35:42;100596.38;;;31.60;100.00
44992;BME280;56865;51.618;7.406;2023-05-10T19:38:13;100598.47;;;31.55;100.00
44992;BME280;56865;51.618;7.406;2023-05-10T19:40:44;100605.16;;;31.46;100.00
44992;BME280;56865;51.618;7.406;2023-05-10T19:43:15;100597.78;;;31.37;100.00
44992;BME280;56865;51.618;7.406;2023-05-10T19:45:48;100604.66;;;31.25;100.00
44992;BME280;56865;51.618;7.406;2023-05-10T19:48:19;100611.47;;;31.43;100.00
44992;BME280;56865;51.618;7.406;2023-05-10T19:50:49;100602.13;;;31.38;100.00
44992;BME280;56865;51.618;7.406;2023-05-10T19:53:20;100606.94;;;31.31;100.00
44992;BME280;56865;51.618;7.406;2023-05-10T19:55:50;100606.72;;;31.34;100.00
44992;BME280;56865;51.618;7.406;2023-05-10T19:58:20;100600.25;;;31.40;100.00
44992;BME280;56865;51.618;7.406;2023-05-10T20:00:53;100603.97;;;31.07;100.00
44992;BME280;56865;51.618;7.406;2023-05-10T20:03:24;100611.25;;;31.18;100.00
44992;BME280;56865;51.618;7.406;2023-05-10T20:05:54;100605.81;;;31.21;100.00
44992;BME280;56865;51.618;7.406;2023-05-10T20:08:24;100607.31;;;31.25;100.00
44992;BME280;56865;51.618;7.406;2023-05-10T20:10:55;100599.78;;;31.48;100.00
44992;BME280;56865;51.618;7.406;2023-05-10T20:13:28;100599.22;;;31.42;100.00
44992;BME280;56865;51.618;7.406;2023-05-10T20:16:02;100587.56;;;31.32;100.00
44992;BME280;56865;51.618;7.406;2023-05-10T20:18:32;100589.44;;;31.30;100.00
44992;BME280;56865;51.618;7.406;2023-05-10T20:21:04;100585.75;;;31.33;100.00
44992;BME280;56865;51.618;7.406;2023-05-10T20:23:34;100587.56;;;31.32;100.00
44992;BME280;56865;51.618;7.406;2023-05-10T20:26:04;100588.41;;;31.33;100.00
44992;BME280;56865;51.618;7.406;2023-05-10T20:28:34;100596.19;;;31.34;100.00
44992;BME280;56865;51.618;7.406;2023-05-10T20:31:08;100593.75;;;31.31;100.00
44992;BME280;56865;51.618;7.406;2023-05-10T20:33:38;100598.66;;;31.37;100.00
44992;BME280;56865;51.618;7.406;2023-05-10T20:36:11;100598.84;;;31.20;100.00
44992;BME280;56865;51.618;7.406;2023-05-10T20:38:41;100595.16;;;31.08;100.00